Time;durP1;ratioP1;P1;durP2;ratioP2;P2;SDS_P1;SDS_P2;PMS_P1;PMS_P2;Temp;Humidity;BMP_temperature;BMP_pressure;BME280_temperature;BME280_humidity;BME280_pressure;Samples;Min_cycle;Max_cycle;Signal;HPM_P1;HPM_P2
2020/12/08 00:00:42;;;;;;;16.63;10.65;;;22.60;33.30;;;;;;6152464;28;83804;-57
2020/12/08 00:03:43;;;;;;;18.45;11.10;;;22.60;33.30;;;;;;6165707;28;83934;-57
2020/12/08 00:06:43;;;;;;;15.45;10.73;;;22.60;33.30;;;;;;6176613;28;84316;-58
2020/12/08 00:09:44;;;;;;;17.17;11.30;;;22.60;33.30;;;;;;6177060;28;83776;-57
2020/12/08 00:12:45;;;;;;;15.63;10.32;;;22.60;33.30;;;;;;6182110;28;86260;-57
2020/12/08 00:15:45;;;;;;;16.58;10.73;;;22.60;33.20;;;;;;6169639;27;83389;-56
2020/12/08 00:18:46;;;;;;;22.25;10.50;;;22.50;33.20;;;;;;6176884;28;83669;-53
2020/12/08 00:21:47;;;;;;;19.60;12.13;;;22.50;33.20;;;;;;6176540;28;83737;-51
2020/12/08 00:24:48;;;;;;;15.65;10.52;;;22.50;33.10;;;;;;6175835;28;83141;-51
2020/12/08 00:27:48;;;;;;;17.30;10.43;;;22.50;33.80;;;;;;6176716;28;83707;-55
2020/12/08 00:30:49;;;;;;;16.35;11.13;;;22.50;33.10;;;;;;6186910;27;83302;-56
2020/12/08 00:33:49;;;;;;;16.20;10.15;;;22.50;32.90;;;;;;6182125;28;83460;-56
2020/12/08 00:36:50;;;;;;;16.83;10.55;;;22.50;32.90;;;;;;6175374;27;85283;-56
2020/12/08 00:39:50;;;;;;;21.17;11.15;;;22.50;32.70;;;;;;6175584;28;83437;-56
2020/12/08 00:42:51;;;;;;;17.63;10.60;;;22.50;32.60;;;;;;6174860;27;84345;-56
2020/12/08 00:45:51;;;;;;;16.75;10.90;;;22.50;32.60;;;;;;6175715;28;83043;-54
2020/12/08 00:48:52;;;;;;;18.73;11.43;;;22.50;32.70;;;;;;6175703;28;83134;-57
2020/12/08 00:51:53;;;;;;;19.52;10.85;;;22.50;32.50;;;;;;6173349;27;85956;-56
2020/12/08 00:54:54;;;;;;;19.77;11.27;;;22.50;32.60;;;;;;6163887;28;83778;-54
2020/12/08 00:57:54;;;;;;;17.33;10.60;;;22.50;32.70;;;;;;6148773;28;86232;-57
2020/12/08 01:00:56;;;;;;;15.60;10.10;;;22.50;32.60;;;;;;6160868;28;83903;-60
2020/12/08 01:03:57;;;;;;;16.92;10.30;;;22.50;32.50;;;;;;6173726;27;86500;-57
2020/12/08 01:07:01;;;;;;;19.75;11.63;;;22.50;32.40;;;;;;6174201;28;85836;-57
2020/12/08 01:10:01;;;;;;;16.75;10.63;;;22.50;32.50;;;;;;6170424;28;85707;-57
2020/12/08 01:13:02;;;;;;;15.70;10.75;;;22.50;32.40;;;;;;6180102;28;85481;-58
2020/12/08 01:16:03;;;;;;;16.67;10.43;;;22.50;32.40;;;;;;6169459;28;86279;-57
2020/12/08 01:19:04;;;;;;;16.45;10.32;;;22.50;32.50;;;;;;6176621;28;85612;-52
2020/12/08 01:22:05;;;;;;;23.55;11.57;;;22.40;32.40;;;;;;6183495;27;85824;-57
2020/12/08 01:25:06;;;;;;;15.20;10.77;;;22.40;32.50;;;;;;6178600;28;86026;-57
2020/12/08 01:28:09;;;;;;;17.42;10.65;;;22.40;32.40;;;;;;6161131;28;82911;-57
2020/12/08 01:31:10;;;;;;;19.23;10.90;;;22.40;32.40;;;;;;6155879;28;87619;-57
2020/12/08 01:34:10;;;;;;;17.10;10.00;;;22.40;32.60;;;;;;6165059;28;82942;-57
2020/12/08 01:37:11;;;;;;;16.27;10.77;;;22.40;32.60;;;;;;6173177;28;86089;-57
2020/12/08 01:40:12;;;;;;;15.13;9.90;;;22.40;32.70;;;;;;6174815;27;83121;-57
2020/12/08 01:43:12;;;;;;;17.63;11.02;;;22.40;32.80;;;;;;6182497;28;86189;-56
2020/12/08 01:46:14;;;;;;;13.38;9.15;;;22.40;32.70;;;;;;6184616;28;83388;-57
2020/12/08 01:49:15;;;;;;;19.15;10.38;;;22.40;32.70;;;;;;6189808;28;86188;-56
2020/12/08 01:52:16;;;;;;;15.38;10.30;;;22.30;32.70;;;;;;6180059;28;83299;-57
2020/12/08 01:55:16;;;;;;;14.73;9.93;;;22.30;32.60;;;;;;6166887;28;84159;-55
2020/12/08 01:58:23;;;;;;;15.88;10.05;;;22.30;32.70;;;;;;6172767;28;83109;-58
2020/12/08 02:01:32;;;;;;;14.82;9.63;;;22.30;32.50;;;;;;6187680;28;86205;-57
2020/12/08 02:04:34;;;;;;;16.42;10.48;;;22.30;32.60;;;;;;6197251;28;83113;-56
2020/12/08 02:07:34;;;;;;;17.83;10.30;;;22.30;32.60;;;;;;6162776;28;83269;-57
2020/12/08 02:10:35;;;;;;;21.13;10.50;;;22.30;32.50;;;;;;6177439;28;89086;-57
2020/12/08 02:13:38;;;;;;;17.15;10.43;;;22.30;32.40;;;;;;6176549;28;85341;-57
2020/12/08 02:16:38;;;;;;;14.93;9.43;;;22.30;32.40;;;;;;6186056;28;83426;-58
2020/12/08 02:19:40;;;;;;;16.73;9.57;;;22.30;32.30;;;;;;6185713;28;82899;-59
2020/12/08 02:22:42;;;;;;;14.57;9.80;;;22.30;32.20;;;;;;6182362;28;81542;-58
2020/12/08 02:25:44;;;;;;;14.35;9.50;;;22.30;32.00;;;;;;6186805;28;80820;-58
2020/12/08 02:28:53;;;;;;;17.67;9.95;;;22.30;32.00;;;;;;6179407;28;83573;-57
2020/12/08 02:31:55;;;;;;;16.52;9.73;;;22.30;31.90;;;;;;6181720;28;90311;-56
2020/12/08 02:34:56;;;;;;;13.45;9.38;;;22.30;31.90;;;;;;6182001;27;80695;-55
2020/12/08 02:37:57;;;;;;;16.25;9.82;;;22.30;31.90;;;;;;6159312;28;82786;-57
2020/12/08 02:40:58;;;;;;;15.18;9.13;;;22.30;31.80;;;;;;6162733;28;81936;-55
2020/12/08 02:44:00;;;;;;;14.55;8.70;;;22.30;31.70;;;;;;6152913;28;83649;-56
2020/12/08 02:47:01;;;;;;;12.93;8.48;;;22.30;31.80;;;;;;6138917;28;82029;-57
2020/12/08 02:50:02;;;;;;;13.10;8.23;;;22.30;31.70;;;;;;6139978;28;81541;-57
2020/12/08 02:53:04;;;;;;;15.63;9.13;;;22.30;31.80;;;;;;6166291;28;81341;-57
2020/12/08 02:56:05;;;;;;;13.85;8.45;;;22.30;31.70;;;;;;6174282;28;81442;-56
2020/12/08 02:59:06;;;;;;;14.45;9.25;;;22.30;31.60;;;;;;6157278;28;83456;-57
2020/12/08 03:02:09;;;;;;;11.63;8.13;;;22.30;31.70;;;;;;6177558;28;83435;-57
2020/12/08 03:05:17;;;;;;;14.05;8.73;;;22.30;31.70;;;;;;6157077;28;83181;-58
2020/12/08 03:08:20;;;;;;;15.75;9.13;;;22.30;31.80;;;;;;6145024;28;83142;-58
2020/12/08 03:11:21;;;;;;;13.48;8.98;;;22.30;31.80;;;;;;6160873;28;82962;-58
2020/12/08 03:14:23;;;;;;;13.88;9.02;;;22.30;31.90;;;;;;6174888;28;82459;-55
2020/12/08 03:17:25;;;;;;;14.07;8.60;;;22.30;31.80;;;;;;6191512;28;83160;-58
2020/12/08 03:20:26;;;;;;;13.10;8.57;;;22.20;31.80;;;;;;6190180;28;82903;-58
2020/12/08 03:23:27;;;;;;;12.90;8.30;;;22.20;31.80;;;;;;6188603;28;83213;-59
2020/12/08 03:26:28;;;;;;;13.93;8.82;;;22.20;31.90;;;;;;6156183;28;81902;-59
2020/12/08 03:29:30;;;;;;;14.30;9.40;;;22.20;31.80;;;;;;6195776;28;92284;-55
2020/12/08 03:32:33;;;;;;;13.13;8.38;;;22.20;31.80;;;;;;6190956;28;85960;-58
2020/12/08 03:35:35;;;;;;;12.18;8.15;;;22.20;32.60;;;;;;6186346;28;82362;-57
2020/12/08 03:38:36;;;;;;;14.77;8.82;;;22.20;31.80;;;;;;6194221;28;83799;-58
2020/12/08 03:41:36;;;;;;;10.77;7.43;;;22.20;32.00;;;;;;6190711;28;80922;-54
2020/12/08 03:44:41;;;;;;;12.23;8.50;;;22.20;31.90;;;;;;6179282;28;83095;-57
2020/12/08 03:47:51;;;;;;;11.10;7.32;;;22.20;32.00;;;;;;6182192;28;83306;-58
2020/12/08 03:50:56;;;;;;;11.47;7.43;;;22.20;31.90;;;;;;6183528;28;80598;-58
2020/12/08 03:54:00;;;;;;;13.43;8.93;;;22.20;31.90;;;;;;6176532;27;82937;-57
2020/12/08 03:57:04;;;;;;;14.52;8.52;;;22.20;32.00;;;;;;6181599;28;83587;-57
2020/12/08 04:00:06;;;;;;;12.75;8.38;;;22.20;32.10;;;;;;6181522;28;83492;-58
2020/12/08 04:03:13;;;;;;;13.00;8.30;;;22.20;32.00;;;;;;6176437;28;80780;-58
2020/12/08 04:06:18;;;;;;;14.80;8.50;;;22.20;32.00;;;;;;6180037;27;83217;-59
2020/12/08 04:09:19;;;;;;;13.23;7.82;;;22.20;31.90;;;;;;6177578;28;82602;-59
2020/12/08 04:12:20;;;;;;;12.00;7.57;;;22.20;31.80;;;;;;6175712;27;83134;-58
2020/12/08 04:15:21;;;;;;;11.70;7.72;;;22.20;31.70;;;;;;6180680;28;80573;-58
2020/12/08 04:18:22;;;;;;;12.90;7.07;;;22.20;31.50;;;;;;6180060;27;80436;-58
2020/12/08 04:21:25;;;;;;;12.05;7.88;;;22.20;31.60;;;;;;6178718;28;84487;-59
2020/12/08 04:24:30;;;;;;;13.52;7.93;;;22.20;31.30;;;;;;6177439;28;83088;-59
2020/12/08 04:27:31;;;;;;;12.68;7.90;;;22.20;31.30;;;;;;6188992;28;82841;-56
2020/12/08 04:30:38;;;;;;;11.10;7.97;;;22.20;31.40;;;;;;6185266;27;83346;-58
2020/12/08 04:33:40;;;;;;;11.77;7.47;;;22.20;31.30;;;;;;6185382;28;83038;-58
2020/12/08 04:36:41;;;;;;;11.82;7.95;;;22.20;31.30;;;;;;6176588;28;81061;-57
2020/12/08 04:39:41;;;;;;;11.93;7.30;;;22.20;31.30;;;;;;6180908;28;80469;-58
2020/12/08 04:42:42;;;;;;;13.20;8.20;;;22.20;31.30;;;;;;6182757;28;80652;-58
2020/12/08 04:45:42;;;;;;;11.10;7.03;;;22.20;31.30;;;;;;6174484;28;80872;-57
2020/12/08 04:48:43;;;;;;;11.48;7.25;;;22.20;31.30;;;;;;6164775;28;80222;-57
2020/12/08 04:51:43;;;;;;;11.90;7.75;;;22.20;31.30;;;;;;6178441;28;80754;-57
2020/12/08 04:54:44;;;;;;;10.60;7.43;;;22.20;31.30;;;;;;6178111;28;81133;-59
2020/12/08 04:57:45;;;;;;;10.75;7.50;;;22.10;31.40;;;;;;6176486;28;85363;-59
2020/12/08 05:00:45;;;;;;;12.50;7.97;;;22.10;31.40;;;;;;6179372;28;81233;-59
2020/12/08 05:03:46;;;;;;;12.07;7.90;;;22.10;31.50;;;;;;6184477;27;84679;-57
2020/12/08 05:06:47;;;;;;;11.65;7.32;;;22.10;31.50;;;;;;6183601;28;80639;-57
2020/12/08 05:09:47;;;;;;;11.40;6.95;;;22.10;31.40;;;;;;6176771;28;80677;-58
2020/12/08 05:12:48;;;;;;;12.23;7.88;;;22.20;32.00;;;;;;6183472;27;83298;-57
2020/12/08 05:15:48;;;;;;;11.75;7.80;;;22.20;31.60;;;;;;6177232;28;82884;-56
2020/12/08 05:18:49;;;;;;;12.50;8.07;;;22.20;31.30;;;;;;6179589;28;81512;-58
2020/12/08 05:21:49;;;;;;;11.63;7.50;;;22.30;30.90;;;;;;6174843;28;80605;-58
2020/12/08 05:24:50;;;;;;;12.05;8.25;;;22.40;30.70;;;;;;6175536;27;83049;-59
2020/12/08 05:27:51;;;;;;;11.40;7.72;;;22.40;30.40;;;;;;6184684;28;81229;-59
2020/12/08 05:30:51;;;;;;;11.57;7.22;;;22.50;30.50;;;;;;6179292;28;80993;-58
2020/12/08 05:33:52;;;;;;;11.20;7.25;;;22.50;30.60;;;;;;6175620;28;81833;-59
2020/12/08 05:36:52;;;;;;;11.65;7.53;;;22.60;30.70;;;;;;6182277;28;82090;-58
2020/12/08 05:39:53;;;;;;;11.43;7.50;;;22.60;30.90;;;;;;6182582;27;80760;-58
2020/12/08 05:42:53;;;;;;;11.00;7.38;;;22.60;32.50;;;;;;6167117;28;81415;-55
2020/12/08 05:45:54;;;;;;;11.77;7.57;;;22.60;33.40;;;;;;6163758;28;81793;-55
2020/12/08 05:48:54;;;;;;;10.70;6.75;;;22.60;34.30;;;;;;6162863;28;84620;-59
2020/12/08 05:51:55;;;;;;;12.02;7.28;;;22.60;34.80;;;;;;6166775;28;82402;-59
2020/12/08 05:54:55;;;;;;;12.00;7.90;;;22.60;34.80;;;;;;6183291;28;81260;-59
2020/12/08 05:57:56;;;;;;;12.73;7.22;;;22.60;35.10;;;;;;6185197;28;82882;-59
2020/12/08 06:00:56;;;;;;;11.82;6.95;;;22.60;35.20;;;;;;6168853;28;83315;-59
2020/12/08 06:03:57;;;;;;;11.85;7.35;;;22.60;35.20;;;;;;6178618;28;81939;-59
2020/12/08 06:06:57;;;;;;;11.65;7.25;;;22.60;35.50;;;;;;6175064;28;81820;-57
2020/12/08 06:09:58;;;;;;;11.70;8.00;;;22.60;35.60;;;;;;6178920;28;80360;-57
2020/12/08 06:12:59;;;;;;;12.43;7.63;;;22.60;35.70;;;;;;6180746;28;80623;-56
2020/12/08 06:15:59;;;;;;;14.40;8.32;;;22.70;36.30;;;;;;6183163;28;80985;-57
2020/12/08 06:19:00;;;;;;;14.50;8.55;;;22.70;36.80;;;;;;6189652;28;82969;-57
2020/12/08 06:22:00;;;;;;;19.90;7.85;;;22.70;36.90;;;;;;6163029;27;80803;-59
2020/12/08 06:25:01;;;;;;;12.88;7.88;;;22.70;37.30;;;;;;6149285;28;81007;-58
2020/12/08 06:28:01;;;;;;;14.15;8.30;;;22.70;37.40;;;;;;6151437;28;81052;-59
2020/12/08 06:31:02;;;;;;;16.25;8.40;;;22.70;37.40;;;;;;6164861;28;80389;-56
2020/12/08 06:34:02;;;;;;;11.40;7.47;;;22.70;37.40;;;;;;6174363;28;80515;-58
2020/12/08 06:37:03;;;;;;;14.77;8.05;;;22.70;37.20;;;;;;6176601;28;80671;-58
2020/12/08 06:40:03;;;;;;;13.40;8.63;;;22.60;37.00;;;;;;6176696;28;80965;-58
2020/12/08 06:43:04;;;;;;;14.30;7.97;;;22.70;37.10;;;;;;6181505;28;81252;-57
2020/12/08 06:46:05;;;;;;;17.73;7.97;;;22.60;37.30;;;;;;6177597;28;83749;-56
2020/12/08 06:49:05;;;;;;;18.50;7.90;;;22.60;37.70;;;;;;6177961;28;82319;-58
2020/12/08 06:52:06;;;;;;;19.60;8.18;;;22.60;37.80;;;;;;6178546;28;81221;-57
2020/12/08 06:55:07;;;;;;;11.93;7.78;;;22.70;37.90;;;;;;6176455;27;83776;-58
2020/12/08 06:58:07;;;;;;;17.92;8.30;;;22.60;38.00;;;;;;6170990;28;81726;-58
2020/12/08 07:01:08;;;;;;;12.93;8.30;;;22.60;38.10;;;;;;6177923;28;81866;-59
2020/12/08 07:04:08;;;;;;;17.02;8.27;;;22.60;37.80;;;;;;6163231;28;81888;-61
2020/12/08 07:07:09;;;;;;;13.57;8.15;;;22.60;38.10;;;;;;6175339;28;80914;-59
2020/12/08 07:10:09;;;;;;;14.90;7.78;;;22.50;38.20;;;;;;6169866;28;80424;-58
2020/12/08 07:13:10;;;;;;;12.55;7.93;;;22.60;38.00;;;;;;6174433;28;80352;-58
2020/12/08 07:16:11;;;;;;;13.38;7.72;;;22.50;38.00;;;;;;6171643;28;81720;-59
2020/12/08 07:19:11;;;;;;;10.95;7.38;;;22.50;37.80;;;;;;6172154;28;81132;-59
2020/12/08 07:22:12;;;;;;;12.13;7.65;;;22.50;37.80;;;;;;6173381;27;82689;-59
2020/12/08 07:25:12;;;;;;;14.50;8.38;;;22.50;37.80;;;;;;6175894;28;80557;-59
2020/12/08 07:28:13;;;;;;;13.27;7.90;;;22.50;38.00;;;;;;6178687;27;80541;-59
2020/12/08 07:31:13;;;;;;;13.02;7.85;;;22.50;38.10;;;;;;6178031;28;81812;-60
2020/12/08 07:34:14;;;;;;;14.38;8.75;;;22.50;38.10;;;;;;6179504;28;80933;-60
2020/12/08 07:37:15;;;;;;;15.32;8.82;;;22.50;38.30;;;;;;6174790;28;80609;-60
2020/12/08 07:40:15;;;;;;;14.90;8.82;;;22.50;38.40;;;;;;6174695;27;80777;-60
2020/12/08 07:43:16;;;;;;;17.95;8.55;;;22.50;38.40;;;;;;6172351;28;80868;-60
2020/12/08 07:46:16;;;;;;;13.73;8.63;;;22.50;38.70;;;;;;6177612;28;82698;-60
2020/12/08 07:49:17;;;;;;;13.52;7.68;;;22.50;38.50;;;;;;6178037;28;81140;-59
2020/12/08 07:52:17;;;;;;;15.55;8.10;;;22.60;38.70;;;;;;6168940;28;81112;-60
2020/12/08 07:55:18;;;;;;;13.15;7.40;;;22.50;38.80;;;;;;6160178;27;80101;-59
2020/12/08 07:58:18;;;;;;;15.95;8.02;;;22.50;38.50;;;;;;6174271;28;80469;-60
2020/12/08 08:01:19;;;;;;;11.93;8.10;;;22.50;38.20;;;;;;6176577;28;80797;-60
2020/12/08 08:04:20;;;;;;;13.80;8.50;;;22.50;38.30;;;;;;6173231;28;80973;-59
2020/12/08 08:07:20;;;;;;;11.52;8.05;;;22.50;38.00;;;;;;6172747;27;80482;-60
2020/12/08 08:10:21;;;;;;;15.20;8.57;;;22.50;38.20;;;;;;6176987;28;81607;-61
2020/12/08 08:13:21;;;;;;;16.15;8.98;;;22.50;38.20;;;;;;6176664;28;83986;-60
2020/12/08 08:16:22;;;;;;;13.52;8.40;;;22.50;38.20;;;;;;6175686;28;80768;-59
2020/12/08 08:19:23;;;;;;;13.25;8.27;;;22.50;38.20;;;;;;6178518;28;82135;-59
2020/12/08 08:22:23;;;;;;;10.88;7.60;;;22.50;38.10;;;;;;6176212;28;80808;-59
2020/12/08 08:25:24;;;;;;;16.60;8.43;;;22.50;38.10;;;;;;6177127;28;80625;-60
2020/12/08 08:28:25;;;;;;;13.25;7.95;;;22.50;38.00;;;;;;6175813;28;80642;-60
2020/12/08 08:31:25;;;;;;;15.02;8.13;;;22.50;38.10;;;;;;6176935;28;80632;-60
2020/12/08 08:34:26;;;;;;;11.70;8.20;;;22.50;38.00;;;;;;6175861;27;80784;-60
2020/12/08 08:37:26;;;;;;;13.95;8.88;;;22.50;37.90;;;;;;6170375;28;89536;-60
2020/12/08 08:40:27;;;;;;;15.45;9.13;;;22.50;38.00;;;;;;6189366;27;80923;-60
2020/12/08 08:43:27;;;;;;;17.05;8.82;;;22.50;37.80;;;;;;6171654;28;80903;-60
2020/12/08 08:46:29;;;;;;;12.73;8.68;;;22.40;37.70;;;;;;6175948;28;80838;-60
2020/12/08 08:49:30;;;;;;;14.85;8.65;;;22.50;37.70;;;;;;6181937;28;80369;-57
2020/12/08 08:52:31;;;;;;;13.40;8.88;;;22.50;37.70;;;;;;6175827;28;80545;-57
2020/12/08 08:55:31;;;;;;;13.52;8.43;;;22.50;37.70;;;;;;6175084;28;83849;-58
2020/12/08 08:58:32;;;;;;;12.55;8.70;;;22.50;37.70;;;;;;6175927;28;80861;-58
2020/12/08 09:01:33;;;;;;;12.50;8.77;;;22.50;37.80;;;;;;6176409;28;80572;-58
2020/12/08 09:04:33;;;;;;;12.88;7.75;;;22.50;37.70;;;;;;6176484;28;80856;-59
2020/12/08 09:07:34;;;;;;;14.38;8.10;;;22.50;37.60;;;;;;6175987;28;80419;-58
2020/12/08 09:10:34;;;;;;;12.52;8.77;;;22.50;37.70;;;;;;6170921;28;80329;-59
2020/12/08 09:13:35;;;;;;;14.05;8.63;;;22.50;37.60;;;;;;6169851;28;81268;-58
2020/12/08 09:16:38;;;;;;;13.73;8.43;;;22.50;37.60;;;;;;6170243;28;81096;-59
2020/12/08 09:19:39;;;;;;;12.57;7.97;;;22.50;37.70;;;;;;6152547;28;80912;-59
2020/12/08 09:22:41;;;;;;;13.40;7.70;;;22.50;38.00;;;;;;6157531;28;80956;-59
2020/12/08 09:25:41;;;;;;;13.73;8.50;;;22.50;38.20;;;;;;6175977;28;81927;-59
2020/12/08 09:28:43;;;;;;;12.90;7.82;;;22.60;38.90;;;;;;6177083;28;81001;-60
2020/12/08 09:31:43;;;;;;;13.98;8.70;;;22.60;39.50;;;;;;6170674;28;81923;-60
2020/12/08 09:34:44;;;;;;;13.05;8.35;;;22.60;39.70;;;;;;6161649;28;81655;-59
2020/12/08 09:37:44;;;;;;;13.82;8.75;;;22.60;40.60;;;;;;6151888;28;81833;-57
2020/12/08 09:40:45;;;;;;;13.82;8.45;;;22.70;40.50;;;;;;6176847;28;81039;-58
2020/12/08 09:43:45;;;;;;;13.45;9.02;;;22.70;40.60;;;;;;6175417;27;80788;-60
2020/12/08 09:46:46;;;;;;;12.98;8.40;;;22.70;40.70;;;;;;6172024;28;81583;-59
2020/12/08 09:49:47;;;;;;;11.45;7.90;;;22.70;40.40;;;;;;6175583;27;80468;-58
2020/12/08 09:52:47;;;;;;;12.32;8.48;;;22.70;40.10;;;;;;6176461;28;80914;-61
2020/12/08 09:55:49;;;;;;;14.05;8.55;;;22.70;39.90;;;;;;6184618;28;80723;-59
2020/12/08 09:58:49;;;;;;;12.68;8.30;;;22.70;39.80;;;;;;6167708;28;81449;-61
2020/12/08 10:01:50;;;;;;;11.63;8.02;;;22.60;39.90;;;;;;6167865;28;80670;-60
2020/12/08 10:04:50;;;;;;;13.90;8.52;;;22.60;39.60;;;;;;6148897;28;81301;-61
2020/12/08 10:07:51;;;;;;;12.45;8.32;;;22.60;38.70;;;;;;6157690;28;81451;-60
2020/12/08 10:10:52;;;;;;;12.10;8.05;;;22.60;38.30;;;;;;6174316;28;80761;-59
2020/12/08 10:13:52;;;;;;;16.00;8.45;;;22.60;38.10;;;;;;6174877;27;80456;-56
2020/12/08 10:16:53;;;;;;;13.25;8.45;;;22.70;37.60;;;;;;6187837;28;80608;-58
2020/12/08 10:19:53;;;;;;;11.18;7.32;;;22.70;37.30;;;;;;6167186;28;81709;-58
2020/12/08 10:22:54;;;;;;;11.82;7.90;;;22.70;37.00;;;;;;6148251;28;82580;-58
2020/12/08 10:25:54;;;;;;;13.27;8.50;;;22.70;36.80;;;;;;6161103;28;80921;-57
2020/12/08 10:28:55;;;;;;;11.82;8.25;;;22.70;36.70;;;;;;6177754;28;81433;-58
2020/12/08 10:31:56;;;;;;;13.50;8.73;;;22.70;36.30;;;;;;6176051;28;80608;-59
2020/12/08 10:34:56;;;;;;;16.80;7.80;;;22.70;36.50;;;;;;6170357;28;80606;-57
2020/12/08 10:37:57;;;;;;;13.85;8.55;;;22.80;35.80;;;;;;6141363;28;80909;-59
2020/12/08 10:40:58;;;;;;;13.80;8.93;;;22.80;35.60;;;;;;6167779;28;81053;-58
2020/12/08 10:43:58;;;;;;;17.05;8.68;;;22.90;35.50;;;;;;6175670;28;82887;-59
2020/12/08 10:46:59;;;;;;;14.85;9.40;;;22.90;35.90;;;;;;6176491;28;81540;-57
2020/12/08 10:49:59;;;;;;;21.13;9.35;;;23.00;36.20;;;;;;6177930;28;80795;-57
2020/12/08 10:53:00;;;;;;;12.73;8.40;;;23.00;35.50;;;;;;6179378;28;80657;-58
2020/12/08 10:56:00;;;;;;;16.35;9.73;;;23.00;35.50;;;;;;6177745;27;80775;-56
2020/12/08 10:59:01;;;;;;;14.98;9.38;;;23.00;35.60;;;;;;6172478;28;81797;-56
2020/12/08 11:02:02;;;;;;;14.40;9.35;;;23.10;35.40;;;;;;6167541;28;80981;-56
2020/12/08 11:05:05;;;;;;;17.02;9.43;;;23.20;35.50;;;;;;6164061;28;80661;-55
2020/12/08 11:08:05;;;;;;;16.52;10.23;;;23.30;35.40;;;;;;6177487;28;80558;-52
2020/12/08 11:11:06;;;;;;;16.08;9.80;;;23.40;35.10;;;;;;6173719;28;83652;-57
2020/12/08 11:14:06;;;;;;;15.35;10.15;;;23.50;34.90;;;;;;6163032;28;82890;-56
2020/12/08 11:17:07;;;;;;;19.17;10.45;;;23.60;35.00;;;;;;6144827;28;83147;-56
2020/12/08 11:20:08;;;;;;;16.40;10.07;;;23.70;34.90;;;;;;6157816;28;83830;-56
2020/12/08 11:23:09;;;;;;;16.23;11.05;;;23.80;34.50;;;;;;6173437;28;83199;-58
2020/12/08 11:26:09;;;;;;;16.58;9.95;;;23.80;34.50;;;;;;6173123;28;83160;-57
2020/12/08 11:29:10;;;;;;;15.70;9.25;;;23.80;34.40;;;;;;6178974;28;84850;-56
2020/12/08 11:32:10;;;;;;;14.15;9.45;;;23.90;34.20;;;;;;6178960;28;81059;-54
2020/12/08 11:35:11;;;;;;;16.33;10.30;;;23.90;34.50;;;;;;6178602;27;81046;-57
2020/12/08 11:38:11;;;;;;;12.85;9.35;;;23.90;34.30;;;;;;6164563;28;85874;-55
2020/12/08 11:41:12;;;;;;;14.40;8.80;;;23.80;33.60;;;;;;6163560;27;83922;-56
2020/12/08 11:44:12;;;;;;;13.05;9.77;;;23.80;33.70;;;;;;6178104;28;82850;-56
2020/12/08 11:47:13;;;;;;;16.75;10.23;;;23.90;33.80;;;;;;6166748;27;80568;-58
2020/12/08 11:50:14;;;;;;;14.93;9.18;;;23.90;33.80;;;;;;6173513;28;84151;-56
2020/12/08 11:53:14;;;;;;;18.17;9.80;;;24.00;34.10;;;;;;6177682;28;82859;-55
2020/12/08 11:56:15;;;;;;;14.73;8.98;;;24.10;34.00;;;;;;6180935;28;80751;-57
2020/12/08 11:59:15;;;;;;;15.45;9.60;;;24.10;34.00;;;;;;6166709;28;81527;-53
2020/12/08 12:02:16;;;;;;;13.10;9.02;;;24.20;33.90;;;;;;6169835;28;81568;-54
2020/12/08 12:05:16;;;;;;;16.10;9.60;;;24.20;33.50;;;;;;6175629;28;88609;-56
2020/12/08 12:08:17;;;;;;;13.80;8.95;;;24.30;33.50;;;;;;6178986;28;80927;-53
2020/12/08 12:11:18;;;;;;;15.13;9.02;;;24.30;33.30;;;;;;6179659;27;80930;-54
2020/12/08 12:14:18;;;;;;;13.82;8.85;;;24.40;33.10;;;;;;6171578;28;81547;-52
2020/12/08 12:17:19;;;;;;;15.85;9.20;;;24.50;33.10;;;;;;6147390;28;80700;-58
2020/12/08 12:20:19;;;;;;;14.82;9.98;;;24.50;32.90;;;;;;6149488;28;81213;-54
2020/12/08 12:23:20;;;;;;;12.95;9.02;;;24.50;32.70;;;;;;6142088;28;82867;-62
2020/12/08 12:26:20;;;;;;;14.32;8.70;;;24.50;32.60;;;;;;6159117;28;84027;-61
2020/12/08 12:29:21;;;;;;;15.10;9.32;;;24.50;32.80;;;;;;6177394;28;81332;-61
2020/12/08 12:32:22;;;;;;;11.88;8.60;;;24.50;33.40;;;;;;6178626;28;84341;-61
2020/12/08 12:35:22;;;;;;;18.85;10.25;;;24.50;33.20;;;;;;6177558;28;81342;-62
2020/12/08 12:38:23;;;;;;;16.83;9.77;;;24.50;33.00;;;;;;6161073;28;86472;-61
2020/12/08 12:41:24;;;;;;;12.50;8.90;;;24.40;32.70;;;;;;6166471;28;82837;-61
2020/12/08 12:44:24;;;;;;;16.15;9.82;;;24.40;32.50;;;;;;6170650;28;80758;-61
2020/12/08 12:47:25;;;;;;;12.68;8.45;;;24.40;32.50;;;;;;6175862;28;81099;-61
2020/12/08 12:50:25;;;;;;;15.38;9.48;;;24.40;32.50;;;;;;6177750;28;80235;-61
2020/12/08 12:53:26;;;;;;;14.82;9.68;;;24.40;32.40;;;;;;6177887;27;80551;-62
2020/12/08 12:56:26;;;;;;;16.88;9.65;;;24.40;32.40;;;;;;6176306;28;83014;-61
2020/12/08 12:59:27;;;;;;;13.68;8.77;;;24.40;32.30;;;;;;6176271;28;81071;-61
2020/12/08 13:02:27;;;;;;;14.93;9.65;;;24.40;32.10;;;;;;6172137;28;81221;-62
2020/12/08 13:05:28;;;;;;;15.73;10.00;;;24.40;32.20;;;;;;6178274;27;80865;-61
2020/12/08 13:08:29;;;;;;;15.43;9.95;;;24.40;32.50;;;;;;6173755;28;83479;-62
2020/12/08 13:11:29;;;;;;;16.35;9.98;;;24.40;32.10;;;;;;6173073;28;84560;-61
2020/12/08 13:14:30;;;;;;;18.67;9.88;;;24.40;32.30;;;;;;6170116;28;83175;-61
2020/12/08 13:17:30;;;;;;;16.42;10.23;;;24.40;31.90;;;;;;6173591;27;84368;-61
2020/12/08 13:20:31;;;;;;;15.52;10.38;;;24.40;31.40;;;;;;6170116;28;83280;-61
2020/12/08 13:23:32;;;;;;;18.40;10.63;;;24.30;31.30;;;;;;6155652;28;89616;-61
2020/12/08 13:26:32;;;;;;;19.70;10.75;;;24.30;31.70;;;;;;6170746;28;84175;-61
2020/12/08 13:29:33;;;;;;;17.95;10.82;;;24.30;31.10;;;;;;6171294;28;83658;-59
2020/12/08 13:32:33;;;;;;;14.48;9.93;;;24.30;31.00;;;;;;6171454;27;84117;-60
2020/12/08 13:35:34;;;;;;;14.85;10.55;;;24.30;31.20;;;;;;6172755;28;84059;-60
2020/12/08 13:38:35;;;;;;;15.75;10.15;;;24.30;31.30;;;;;;6176961;28;83646;-62
2020/12/08 13:41:35;;;;;;;15.00;10.48;;;24.20;31.80;;;;;;6184566;28;83343;-62
2020/12/08 13:44:36;;;;;;;16.33;10.90;;;24.20;30.80;;;;;;6158616;28;83489;-60
2020/12/08 13:47:37;;;;;;;16.90;11.00;;;24.20;31.60;;;;;;6168189;28;84240;-62
2020/12/08 13:50:37;;;;;;;15.13;10.30;;;24.20;30.80;;;;;;6174404;27;83387;-61
2020/12/08 13:53:38;;;;;;;18.52;11.55;;;24.10;31.00;;;;;;6193058;28;84471;-61
2020/12/08 13:56:38;;;;;;;19.02;11.40;;;24.20;31.80;;;;;;6179157;28;84185;-62
2020/12/08 13:59:39;;;;;;;17.92;11.50;;;24.10;31.80;;;;;;6177435;28;83564;-62
2020/12/08 14:02:39;;;;;;;16.20;10.60;;;24.10;30.70;;;;;;6174207;28;86084;-59
2020/12/08 14:05:41;;;;;;;21.27;12.77;;;24.00;31.00;;;;;;6179843;27;84643;-55
2020/12/08 14:08:41;;;;;;;19.08;12.25;;;24.10;30.80;;;;;;6176038;28;83233;-57
2020/12/08 14:11:42;;;;;;;17.73;11.70;;;24.10;30.70;;;;;;6174637;27;86735;-57
2020/12/08 14:14:42;;;;;;;16.42;11.25;;;24.00;31.40;;;;;;6159478;28;82991;-58
2020/12/08 14:17:43;;;;;;;18.20;11.23;;;24.00;30.90;;;;;;6150435;28;84522;-58
2020/12/08 14:20:44;;;;;;;17.67;11.57;;;23.90;31.10;;;;;;6151596;28;83537;-57
2020/12/08 14:23:44;;;;;;;17.67;11.48;;;23.90;30.80;;;;;;6151687;28;83432;-58
2020/12/08 14:26:45;;;;;;;15.75;10.65;;;23.80;31.10;;;;;;6166188;28;83121;-59
2020/12/08 14:29:45;;;;;;;20.33;11.85;;;23.70;31.00;;;;;;6172294;28;84437;-58
2020/12/08 14:32:46;;;;;;;18.65;11.27;;;23.70;30.70;;;;;;6176324;27;84215;-56
2020/12/08 14:35:47;;;;;;;19.23;11.00;;;23.60;30.60;;;;;;6174198;28;84176;-58
2020/12/08 14:38:47;;;;;;;21.38;12.68;;;23.60;30.70;;;;;;6173868;28;83436;-60
2020/12/08 14:41:48;;;;;;;16.70;11.73;;;23.50;30.90;;;;;;6159522;27;84129;-58
2020/12/08 14:44:48;;;;;;;17.50;11.15;;;23.50;30.50;;;;;;6149292;28;83434;-60
2020/12/08 14:47:49;;;;;;;16.70;11.63;;;23.50;31.10;;;;;;6167910;28;83318;-58
2020/12/08 14:50:50;;;;;;;17.02;10.48;;;23.50;31.40;;;;;;6159272;28;83249;-58
2020/12/08 14:53:50;;;;;;;18.42;10.13;;;23.50;32.00;;;;;;6144769;28;83343;-58
2020/12/08 14:56:51;;;;;;;19.13;11.25;;;23.50;32.10;;;;;;6163095;27;83016;-58
2020/12/08 14:59:51;;;;;;;20.58;11.88;;;23.50;32.10;;;;;;6160000;28;83379;-58
2020/12/08 15:02:52;;;;;;;16.55;10.05;;;23.40;32.40;;;;;;6167092;28;84062;-57
2020/12/08 15:05:52;;;;;;;19.70;11.35;;;23.50;32.80;;;;;;6159099;28;83001;-58
2020/12/08 15:08:53;;;;;;;24.85;12.10;;;23.40;33.20;;;;;;6166044;28;83353;-58
2020/12/08 15:11:53;;;;;;;35.70;13.43;;;23.40;33.50;;;;;;6156524;28;83170;-55
2020/12/08 15:14:54;;;;;;;35.65;12.73;;;23.40;33.60;;;;;;6156638;28;85158;-57
2020/12/08 15:17:54;;;;;;;31.80;13.25;;;23.40;34.10;;;;;;6176166;28;83507;-58
2020/12/08 15:20:55;;;;;;;48.03;14.05;;;23.40;34.50;;;;;;6174863;28;83412;-57
2020/12/08 15:23:55;;;;;;;33.53;14.35;;;23.40;34.10;;;;;;6172368;28;84415;-57